Time;durP1;ratioP1;P1;durP2;ratioP2;P2;SDS_P1;SDS_P2;PMS_P1;PMS_P2;Temp;Humidity;BMP_temperature;BMP_pressure;BME280_temperature;BME280_humidity;BME280_pressure;Samples;Min_cycle;Max_cycle;Signal;HPM_P1;HPM_P2
2022/06/13 00:00:22;;;;;;;13.52;4.32;;;16.20;99.90;;;;;;5054429;28;20462;-67
2022/06/13 00:02:48;;;;;;;16.98;4.10;;;16.40;99.90;;;;;;5054608;28;20061;-68
2022/06/13 00:05:15;;;;;;;15.15;4.68;;;16.20;99.90;;;;;;5054553;28;20049;-67
2022/06/13 00:07:41;;;;;;;16.50;4.90;;;16.20;99.90;;;;;;5054506;28;20025;-67
2022/06/13 00:10:08;;;;;;;17.63;4.18;;;16.30;99.90;;;;;;5054591;28;20029;-67
2022/06/13 00:12:34;;;;;;;18.77;4.75;;;16.50;99.90;;;;;;5054303;28;20032;-69
2022/06/13 00:15:00;;;;;;;16.35;4.38;;;16.60;99.90;;;;;;5054479;28;20058;-68
2022/06/13 00:17:26;;;;;;;15.80;5.13;;;16.70;99.90;;;;;;5053885;28;20104;-67
2022/06/13 00:19:52;;;;;;;15.35;4.05;;;16.60;99.90;;;;;;5054643;28;20063;-67
2022/06/13 00:22:18;;;;;;;18.42;5.85;;;16.20;99.90;;;;;;5054682;28;20436;-68
2022/06/13 00:24:45;;;;;;;14.35;4.40;;;16.40;99.90;;;;;;5062347;28;20036;-67
2022/06/13 00:27:12;;;;;;;17.48;4.85;;;16.50;99.90;;;;;;5054166;28;20404;-68
2022/06/13 00:29:38;;;;;;;16.63;4.80;;;16.50;99.90;;;;;;5053489;28;20021;-68
2022/06/13 00:32:05;;;;;;;18.25;4.03;;;16.40;99.90;;;;;;5053954;28;20037;-68
2022/06/13 00:34:30;;;;;;;18.75;4.85;;;16.20;99.90;;;;;;5054392;28;20450;-68
2022/06/13 00:36:56;;;;;;;21.85;4.97;;;16.20;99.90;;;;;;5053723;28;20063;-67
2022/06/13 00:39:23;;;;;;;20.92;5.65;;;16.20;99.90;;;;;;5054015;28;20031;-67
2022/06/13 00:41:49;;;;;;;12.65;4.93;;;16.60;99.90;;;;;;5053854;28;20468;-68
2022/06/13 00:44:26;;;;;;;18.70;5.43;;;16.50;99.90;;;;;;5054459;28;20031;-67
2022/06/13 00:46:52;;;;;;;25.60;5.13;;;16.60;99.90;;;;;;5053595;28;20039;-68
2022/06/13 00:49:26;;;;;;;23.02;5.65;;;16.40;99.90;;;;;;5053872;28;20025;-68
2022/06/13 00:52:12;;;;;;;17.90;5.25;;;16.00;99.90;;;;;;5053410;28;20133;-68
2022/06/13 00:54:41;;;;;;;19.98;5.45;;;15.90;99.90;;;;;;5053942;28;20035;-69
2022/06/13 00:57:12;;;;;;;17.65;5.55;;;15.90;99.90;;;;;;5053881;28;20029;-67
2022/06/13 00:59:39;;;;;;;;;;;15.70;99.90;;;;;;5054159;28;20056;-67
2022/06/13 01:02:07;;;;;;;17.05;5.30;;;15.80;99.90;;;;;;5053003;28;19912;-68
2022/06/13 01:04:34;;;;;;;18.15;5.13;;;16.00;99.90;;;;;;5053352;28;20083;-69
2022/06/13 01:07:02;;;;;;;18.55;6.10;;;16.20;99.90;;;;;;5053311;28;20108;-68
2022/06/13 01:12:14;;;;;;;23.05;5.68;;;15.70;99.90;;;;;;5053198;28;20478;-69
2022/06/13 01:14:58;;;;;;;13.25;4.38;;;15.70;99.90;;;;;;5053663;28;20024;-68
2022/06/13 01:17:32;;;;;;;18.60;4.93;;;15.80;99.90;;;;;;5053113;28;20037;-67
2022/06/13 01:19:58;;;;;;;14.77;5.40;;;15.60;99.90;;;;;;5053181;28;20071;-68
2022/06/13 01:22:33;;;;;;;27.98;5.18;;;15.60;99.90;;;;;;5052127;28;20017;-67
2022/06/13 01:25:26;;;;;;;20.27;5.63;;;15.80;99.90;;;;;;5053160;28;20037;-68
2022/06/13 01:28:30;;;;;;;18.67;5.82;;;16.10;99.90;;;;;;5053641;28;20036;-67
2022/06/13 01:31:27;;;;;;;19.50;5.88;;;16.10;99.90;;;;;;5052798;28;20397;-69
2022/06/13 01:33:58;;;;;;;29.25;6.75;;;16.10;99.90;;;;;;5052963;28;20481;-67
2022/06/13 01:36:33;;;;;;;19.75;5.78;;;16.00;99.90;;;;;;5053545;28;20378;-68
2022/06/13 01:39:17;;;;;;;24.77;6.20;;;15.70;99.90;;;;;;5052811;28;20077;-66
2022/06/13 01:41:57;;;;;;;20.67;6.30;;;16.00;99.90;;;;;;5050548;28;20043;-67
2022/06/13 01:44:39;;;;;;;17.48;5.38;;;16.20;99.90;;;;;;5052789;28;20588;-68
2022/06/13 01:47:22;;;;;;;17.67;6.23;;;15.90;99.90;;;;;;5052781;28;20040;-67
2022/06/13 01:49:57;;;;;;;18.52;5.53;;;15.60;99.90;;;;;;5052764;28;20035;-67
2022/06/13 01:52:39;;;;;;;21.40;6.30;;;15.70;99.90;;;;;;5052781;28;20040;-68
2022/06/13 01:55:21;;;;;;;14.02;5.47;;;15.80;99.90;;;;;;5051538;28;20062;-69
2022/06/13 01:58:16;;;;;;;22.80;6.03;;;15.60;99.90;;;;;;5053125;28;20037;-66
2022/06/13 02:00:51;;;;;;;21.42;5.97;;;15.80;99.90;;;;;;5033778;28;20124;-68
2022/06/13 02:03:17;;;;;;;26.42;7.07;;;15.90;99.90;;;;;;5051443;28;20025;-67
2022/06/13 02:05:58;;;;;;;29.55;7.15;;;15.80;99.90;;;;;;5052518;28;20035;-68
2022/06/13 02:08:51;;;;;;;26.63;6.53;;;15.90;99.90;;;;;;5052740;28;20033;-68
2022/06/13 02:11:31;;;;;;;30.92;7.22;;;15.70;99.90;;;;;;5051588;28;20049;-66
2022/06/13 02:14:01;;;;;;;27.15;7.10;;;15.80;99.90;;;;;;5051989;28;20111;-67
2022/06/13 02:16:36;;;;;;;26.00;7.03;;;16.00;99.90;;;;;;5051760;28;20040;-66
2022/06/13 02:19:08;;;;;;;26.13;7.88;;;16.10;99.90;;;;;;5052181;28;20033;-67
2022/06/13 02:21:42;;;;;;;;;;;16.20;99.90;;;;;;5053198;28;20053;-68
2022/06/13 02:24:13;;;;;;;26.40;7.00;;;16.00;99.90;;;;;;5052439;28;19909;-68
2022/06/13 02:26:42;;;;;;;26.23;6.97;;;15.90;99.90;;;;;;5052600;28;20021;-67
2022/06/13 02:29:19;;;;;;;23.30;7.00;;;16.00;99.90;;;;;;5051967;28;20028;-66
2022/06/13 02:31:47;;;;;;;31.92;8.48;;;15.90;99.90;;;;;;5052622;28;20071;-67
2022/06/13 02:34:47;;;;;;;30.40;7.35;;;15.90;99.90;;;;;;5052130;28;20044;-67
2022/06/13 02:37:19;;;;;;;26.90;7.35;;;15.60;99.90;;;;;;5052453;28;20033;-68
2022/06/13 02:40:03;;;;;;;25.00;7.28;;;15.60;99.90;;;;;;5052274;28;20025;-69
2022/06/13 02:42:32;;;;;;;27.98;6.95;;;15.80;99.90;;;;;;5050201;28;20029;-68
2022/06/13 02:45:06;;;;;;;25.80;7.45;;;15.40;99.90;;;;;;5052328;28;20047;-67
2022/06/13 02:47:37;;;;;;;31.15;6.53;;;15.40;99.90;;;;;;5052067;28;20393;-68
2022/06/13 02:50:09;;;;;;;25.07;6.77;;;15.40;99.90;;;;;;5051956;28;20111;-66
2022/06/13 02:52:43;;;;;;;;;;;15.50;99.90;;;;;;5054001;28;20040;-67
2022/06/13 02:55:13;;;;;;;26.42;7.30;;;15.50;99.90;;;;;;5054710;28;20002;-67
2022/06/13 02:58:05;;;;;;;30.98;8.65;;;15.40;99.90;;;;;;5055745;28;20033;-67
2022/06/13 03:00:31;;;;;;;28.40;7.55;;;15.20;99.90;;;;;;5055597;28;20025;-67
2022/06/13 03:03:08;;;;;;;23.20;7.47;;;15.30;99.90;;;;;;5055723;28;20151;-66
2022/06/13 03:05:45;;;;;;;24.02;7.63;;;15.50;99.90;;;;;;5054581;28;20112;-68
2022/06/13 03:08:30;;;;;;;29.05;8.68;;;15.40;99.90;;;;;;5055672;28;20037;-67
2022/06/13 03:11:07;;;;;;;27.83;8.00;;;15.50;99.90;;;;;;5055202;28;20032;-69
2022/06/13 03:13:54;;;;;;;28.13;9.15;;;15.30;99.90;;;;;;5055757;28;20029;-66
2022/06/13 03:16:57;;;;;;;22.55;7.45;;;15.10;99.90;;;;;;5055369;28;20037;-67
2022/06/13 03:19:35;;;;;;;29.77;8.38;;;15.30;99.90;;;;;;5034100;28;20090;-66
2022/06/13 03:22:23;;;;;;;32.50;8.35;;;15.30;99.90;;;;;;5054186;28;20382;-67
2022/06/13 03:25:05;;;;;;;18.75;7.30;;;15.30;99.90;;;;;;5055323;28;20485;-68
2022/06/13 03:27:50;;;;;;;24.17;7.93;;;15.20;99.90;;;;;;5055243;28;20386;-67
2022/06/13 03:30:21;;;;;;;27.38;8.23;;;15.20;99.90;;;;;;5054932;28;20021;-67
2022/06/13 03:35:42;;;;;;;20.33;8.38;;;15.00;99.90;;;;;;5055177;28;20079;-68
2022/06/13 03:38:15;;;;;;;28.35;8.95;;;15.30;99.90;;;;;;5055144;28;20040;-68
2022/06/13 03:40:47;;;;;;;27.52;8.70;;;15.20;99.90;;;;;;5053487;28;20052;-67
2022/06/13 03:43:41;;;;;;;27.17;8.25;;;15.20;99.90;;;;;;5055167;28;20481;-68
2022/06/13 03:46:15;;;;;;;27.77;8.57;;;14.90;99.90;;;;;;5054996;28;20108;-67
2022/06/13 03:48:59;;;;;;;26.15;8.60;;;14.80;99.90;;;;;;5054602;28;20060;-66
2022/06/13 03:51:31;;;;;;;32.88;8.40;;;14.60;99.90;;;;;;5054757;28;20116;-68
2022/06/13 03:54:17;;;;;;;28.05;8.95;;;14.70;99.90;;;;;;5054864;28;20025;-67
2022/06/13 03:56:55;;;;;;;28.05;9.00;;;14.80;99.90;;;;;;5054692;28;20500;-67
2022/06/13 03:59:31;;;;;;;35.05;9.77;;;15.00;99.90;;;;;;5054678;28;20358;-68
2022/06/13 04:02:04;;;;;;;29.38;8.05;;;15.00;99.90;;;;;;5054640;28;20060;-68
2022/06/13 04:04:45;;;;;;;31.58;8.43;;;14.90;99.90;;;;;;5053587;28;20021;-68
2022/06/13 04:07:11;;;;;;;26.88;9.38;;;15.10;99.90;;;;;;5054702;28;20029;-67
2022/06/13 04:09:57;;;;;;;26.58;7.93;;;15.20;99.90;;;;;;5054464;28;20116;-68
2022/06/13 04:12:28;;;;;;;36.63;9.18;;;15.50;99.90;;;;;;5054454;28;20071;-67
2022/06/13 04:15:00;;;;;;;28.95;9.25;;;15.40;99.90;;;;;;5054463;28;20036;-67
2022/06/13 04:17:34;;;;;;;27.35;7.97;;;15.50;99.90;;;;;;5054512;28;20091;-68
2022/06/13 04:20:25;;;;;;;26.73;8.52;;;15.40;99.90;;;;;;5054326;28;20036;-67
2022/06/13 04:23:05;;;;;;;30.38;8.75;;;15.40;99.90;;;;;;5054457;28;20454;-67
2022/06/13 04:25:53;;;;;;;23.90;8.23;;;15.60;99.90;;;;;;5054322;28;20025;-66
2022/06/13 04:28:34;;;;;;;29.25;8.77;;;15.40;99.90;;;;;;5054800;28;20170;-68
2022/06/13 04:31:04;;;;;;;33.08;8.73;;;15.60;99.90;;;;;;5053884;28;20032;-67
2022/06/13 04:33:38;;;;;;;26.23;9.38;;;15.50;99.90;;;;;;5053941;28;20032;-68
2022/06/13 04:36:07;;;;;;;37.67;8.63;;;15.60;99.90;;;;;;5054063;28;20082;-67
2022/06/13 04:38:33;;;;;;;31.63;8.38;;;15.50;99.90;;;;;;5053729;28;20469;-67
2022/06/13 04:41:04;;;;;;;31.65;9.05;;;15.50;99.90;;;;;;5054618;28;20104;-68
2022/06/13 04:43:36;;;;;;;28.45;8.93;;;15.50;99.90;;;;;;5053980;28;20057;-66
2022/06/13 04:46:08;;;;;;;28.40;9.02;;;15.90;99.90;;;;;;5053839;28;20044;-66
2022/06/13 04:48:38;;;;;;;41.50;8.82;;;15.80;99.90;;;;;;5053641;28;20029;-69
2022/06/13 04:51:16;;;;;;;29.85;8.65;;;16.20;99.90;;;;;;5053849;28;20021;-66
2022/06/13 04:53:57;;;;;;;29.33;8.73;;;15.80;99.90;;;;;;5053378;28;20583;-67
2022/06/13 04:56:24;;;;;;;28.80;8.57;;;15.70;99.90;;;;;;5040601;28;20021;-69
2022/06/13 04:58:52;;;;;;;29.77;7.72;;;15.70;99.90;;;;;;5059446;28;20040;-67
2022/06/13 05:01:34;;;;;;;30.77;8.88;;;15.70;99.90;;;;;;5053672;28;20021;-69
2022/06/13 05:04:04;;;;;;;36.72;9.50;;;15.70;99.90;;;;;;5053380;28;20405;-66
2022/06/13 05:06:32;;;;;;;44.65;10.07;;;15.50;99.90;;;;;;5039925;28;20492;-66
2022/06/13 05:09:02;;;;;;;29.75;8.48;;;15.80;99.90;;;;;;5052953;28;20035;-68
2022/06/13 05:11:37;;;;;;;33.83;9.30;;;15.80;99.90;;;;;;5053208;28;20044;-66
2022/06/13 05:14:20;;;;;;;30.85;8.95;;;16.10;99.90;;;;;;5052199;28;20440;-68
2022/06/13 05:17:09;;;;;;;37.70;10.23;;;16.30;99.90;;;;;;5040014;28;20033;-68
2022/06/13 05:19:54;;;;;;;31.95;7.70;;;16.50;99.90;;;;;;5053639;28;20033;-66
2022/06/13 05:22:43;;;;;;;32.60;8.05;;;16.70;99.90;;;;;;5052983;28;20056;-66
2022/06/13 05:25:12;;;;;;;32.95;9.13;;;16.80;99.90;;;;;;5053027;28;20037;-66
2022/06/13 05:27:38;;;;;;;32.53;9.00;;;16.60;99.90;;;;;;5051697;28;20091;-68
2022/06/13 05:30:04;;;;;;;35.72;7.70;;;16.70;99.90;;;;;;5052941;28;20029;-67
2022/06/13 05:32:30;;;;;;;29.70;7.85;;;16.40;99.90;;;;;;5053050;28;20045;-66
2022/06/13 05:34:56;;;;;;;26.95;7.15;;;16.30;99.90;;;;;;5052966;28;20093;-67
2022/06/13 05:37:23;;;;;;;18.80;5.80;;;16.50;99.90;;;;;;5052543;28;20029;-67
2022/06/13 05:39:49;;;;;;;22.77;5.35;;;16.50;99.90;;;;;;5052697;28;20025;-66
2022/06/13 05:42:15;;;;;;;26.80;5.90;;;16.50;99.90;;;;;;5052982;28;20365;-68
2022/06/13 05:44:41;;;;;;;23.80;6.45;;;16.40;99.90;;;;;;5051732;28;20037;-67
2022/06/13 05:47:19;;;;;;;16.20;5.03;;;16.30;99.90;;;;;;5034786;28;20052;-68
2022/06/13 05:49:46;;;;;;;22.73;4.85;;;16.30;99.90;;;;;;5052679;28;20120;-68
2022/06/13 05:52:12;;;;;;;18.75;4.47;;;16.40;99.90;;;;;;5052340;28;20061;-66
2022/06/13 05:54:38;;;;;;;21.33;4.53;;;16.70;99.90;;;;;;5052641;28;20029;-66
2022/06/13 05:57:05;;;;;;;23.98;4.50;;;16.60;99.90;;;;;;5052770;28;20043;-68
2022/06/13 05:59:31;;;;;;;21.65;4.25;;;16.70;99.90;;;;;;5052565;28;20537;-68
2022/06/13 06:01:56;;;;;;;13.10;3.70;;;16.50;99.90;;;;;;5052885;28;20112;-66
2022/06/13 06:04:22;;;;;;;14.00;3.42;;;16.60;99.90;;;;;;5052306;28;20481;-67
2022/06/13 06:06:48;;;;;;;13.77;2.95;;;16.70;99.90;;;;;;5051630;28;20068;-67
2022/06/13 06:09:14;;;;;;;14.25;3.35;;;16.70;99.90;;;;;;5052285;28;20119;-66
2022/06/13 06:11:40;;;;;;;7.80;2.80;;;16.70;99.90;;;;;;5051599;28;20449;-68
2022/06/13 06:14:07;;;;;;;15.07;2.80;;;16.60;99.90;;;;;;5052523;28;20432;-67
2022/06/13 06:16:33;;;;;;;16.33;4.07;;;16.70;99.90;;;;;;5052801;28;20029;-68
2022/06/13 06:18:59;;;;;;;14.32;3.00;;;16.90;99.90;;;;;;5052334;28;20028;-67
2022/06/13 06:21:25;;;;;;;18.13;2.72;;;16.90;99.90;;;;;;5051956;28;20017;-68
2022/06/13 06:23:51;;;;;;;15.30;4.15;;;16.90;99.90;;;;;;5052318;28;20032;-68
2022/06/13 06:26:20;;;;;;;22.90;4.90;;;17.00;99.90;;;;;;5052394;28;20029;-67
2022/06/13 06:28:46;;;;;;;14.90;3.20;;;17.10;99.90;;;;;;5055414;28;20561;-68
2022/06/13 06:31:12;;;;;;;15.95;3.83;;;17.30;99.90;;;;;;5056154;28;20116;-67
2022/06/13 06:33:38;;;;;;;14.73;2.85;;;17.40;99.90;;;;;;5054823;28;20125;-67
2022/06/13 06:36:05;;;;;;;20.70;3.58;;;17.00;99.90;;;;;;5042158;28;20025;-66
2022/06/13 06:38:31;;;;;;;18.80;3.33;;;17.00;99.90;;;;;;5054169;28;20116;-67
2022/06/13 06:40:57;;;;;;;14.07;2.60;;;17.00;99.90;;;;;;5054931;28;20078;-66
2022/06/13 06:43:23;;;;;;;13.82;3.30;;;17.30;99.90;;;;;;5055204;28;20161;-66
2022/06/13 06:45:49;;;;;;;13.10;2.58;;;17.40;99.90;;;;;;5054937;28;20428;-66
2022/06/13 06:48:21;;;;;;;14.35;3.63;;;17.30;99.90;;;;;;5053838;28;20167;-65
2022/06/13 06:50:49;;;;;;;13.18;2.88;;;17.00;99.90;;;;;;5048454;28;20547;-67
2022/06/13 06:53:17;;;;;;;9.45;2.33;;;17.20;99.90;;;;;;5054660;28;20056;-68
2022/06/13 06:59:53;;;;;;;9.15;2.10;;;17.30;99.90;;;;;;5054998;28;20504;-68
2022/06/13 07:01:16;;;;;;;10.75;2.53;;;17.40;99.90;;;;;;5053602;28;20045;-68
2022/06/13 07:03:43;;;;;;;15.23;2.65;;;17.40;99.90;;;;;;5054318;28;20036;-66
2022/06/13 07:06:10;;;;;;;13.57;2.33;;;17.50;99.90;;;;;;5052063;28;20032;-69
2022/06/13 07:08:36;;;;;;;17.55;2.95;;;17.80;99.90;;;;;;5054856;28;20106;-69
2022/06/13 07:13:51;;;;;;;20.25;3.42;;;18.00;99.90;;;;;;5059877;22;20045;-73
2022/06/13 07:16:17;;;;;;;12.38;2.45;;;17.80;99.90;;;;;;5035938;28;20021;-70
2022/06/13 07:18:45;;;;;;;12.38;2.50;;;17.50;99.90;;;;;;5014831;28;20018;-67
2022/06/13 07:21:11;;;;;;;15.30;2.90;;;17.00;99.90;;;;;;5029618;28;20505;-71
2022/06/13 07:23:38;;;;;;;10.93;2.88;;;17.10;99.90;;;;;;5032440;28;20100;-68
2022/06/13 07:26:05;;;;;;;7.75;2.28;;;17.40;99.90;;;;;;5030037;28;20033;-71
2022/06/13 07:28:31;;;;;;;9.88;2.80;;;17.60;99.90;;;;;;5031608;28;20030;-70
2022/06/13 07:30:57;;;;;;;8.60;1.83;;;17.70;99.90;;;;;;5031593;28;20125;-68
2022/06/13 07:33:24;;;;;;;23.10;2.95;;;17.90;99.90;;;;;;5029682;28;20032;-70
2022/06/13 07:35:50;;;;;;;10.07;2.20;;;18.00;99.90;;;;;;5024744;28;20057;-69
2022/06/13 07:38:18;;;;;;;10.30;2.15;;;18.00;99.90;;;;;;5031389;28;20051;-68
2022/06/13 07:40:57;;;;;;;8.15;1.77;;;18.00;99.90;;;;;;5028269;28;20096;-68
2022/06/13 07:43:36;;;;;;;8.65;1.90;;;18.10;99.90;;;;;;5023942;28;20034;-71
2022/06/13 07:46:05;;;;;;;8.32;2.00;;;18.50;99.90;;;;;;5017947;28;20025;-68
2022/06/13 07:48:31;;;;;;;11.13;2.25;;;18.80;99.90;;;;;;5030215;28;20053;-69
2022/06/13 07:50:58;;;;;;;9.85;1.80;;;18.80;99.90;;;;;;5028896;28;20048;-70
2022/06/13 07:53:24;;;;;;;12.20;2.03;;;18.50;99.90;;;;;;5029561;28;20038;-73
2022/06/13 07:55:50;;;;;;;11.55;2.60;;;18.30;99.90;;;;;;5034073;28;20075;-69
2022/06/13 07:58:19;;;;;;;7.38;2.17;;;18.30;99.90;;;;;;5033989;28;20076;-68
2022/06/13 08:00:49;;;;;;;15.77;2.55;;;18.20;99.90;;;;;;5033871;28;20083;-68
2022/06/13 08:03:20;;;;;;;9.23;2.50;;;18.30;99.90;;;;;;5030989;28;20025;-67
2022/06/13 08:05:46;;;;;;;5.93;1.83;;;17.80;99.90;;;;;;5028670;28;20034;-68
2022/06/13 08:08:12;;;;;;;9.85;2.15;;;17.60;99.90;;;;;;5033770;28;20053;-67
2022/06/13 08:10:39;;;;;;;8.82;2.75;;;17.30;99.90;;;;;;5032321;28;20551;-68
2022/06/13 08:13:05;;;;;;;8.60;1.70;;;17.40;99.90;;;;;;5033761;28;20030;-68
2022/06/13 08:15:31;;;;;;;6.70;2.00;;;18.00;99.90;;;;;;5033484;28;20025;-68
2022/06/13 08:17:57;;;;;;;10.85;2.15;;;18.50;99.90;;;;;;5031491;28;20112;-68
2022/06/13 08:20:23;;;;;;;14.32;2.22;;;18.40;99.90;;;;;;5033652;28;20025;-68
2022/06/13 08:22:49;;;;;;;5.43;2.05;;;18.30;99.90;;;;;;5033026;28;20041;-67
2022/06/13 08:25:22;;;;;;;6.93;1.80;;;18.10;99.90;;;;;;5033385;28;20394;-68
2022/06/13 08:27:48;;;;;;;11.35;2.30;;;18.30;99.90;;;;;;5033151;28;20069;-68
2022/06/13 08:30:14;;;;;;;17.38;2.60;;;18.20;99.90;;;;;;5032906;28;20075;-68
2022/06/13 08:32:42;;;;;;;6.45;1.90;;;18.10;99.90;;;;;;5029857;28;20038;-68
2022/06/13 08:35:07;;;;;;;8.68;2.78;;;18.20;99.90;;;;;;5019715;28;20017;-68
2022/06/13 08:37:33;;;;;;;13.13;2.03;;;18.20;99.90;;;;;;5027284;28;20095;-67
2022/06/13 08:40:00;;;;;;;8.13;2.28;;;18.60;99.90;;;;;;5030571;28;20538;-68
2022/06/13 08:42:35;;;;;;;10.35;2.97;;;18.50;99.90;;;;;;5029974;28;20101;-67
2022/06/13 08:45:04;;;;;;;11.55;1.60;;;18.70;99.90;;;;;;5028044;28;20061;-68
2022/06/13 08:47:45;;;;;;;8.35;1.67;;;19.20;99.90;;;;;;5027230;28;20060;-68
2022/06/13 08:50:20;;;;;;;16.20;2.28;;;18.70;99.50;;;;;;5024704;28;20033;-67
2022/06/13 08:53:24;;;;;;;5.18;1.40;;;18.80;99.90;;;;;;5023637;28;20034;-67
2022/06/13 08:56:18;;;;;;;9.48;1.90;;;18.70;99.90;;;;;;5032868;28;20037;-68
2022/06/13 08:59:22;;;;;;;12.15;1.88;;;18.70;99.90;;;;;;5030125;28;20459;-67
2022/06/13 09:02:10;;;;;;;6.03;1.42;;;19.10;99.90;;;;;;5030155;28;20486;-67
2022/06/13 09:04:50;;;;;;;4.85;1.63;;;19.50;99.90;;;;;;5024880;28;20032;-68
2022/06/13 09:07:31;;;;;;;7.05;1.50;;;19.20;99.90;;;;;;5032399;28;20037;-67
2022/06/13 09:10:16;;;;;;;9.77;1.48;;;19.50;99.90;;;;;;5018212;28;20021;-67
2022/06/13 09:12:59;;;;;;;8.13;1.40;;;19.30;99.90;;;;;;5032171;28;20047;-67
2022/06/13 09:15:37;;;;;;;7.25;1.55;;;19.00;99.90;;;;;;5032474;28;20060;-67
2022/06/13 09:18:17;;;;;;;6.32;1.65;;;19.20;99.90;;;;;;4992902;28;20474;-67
2022/06/13 09:21:01;;;;;;;10.63;1.63;;;19.10;99.90;;;;;;5024002;28;20026;-68
2022/06/13 09:23:45;;;;;;;7.15;1.50;;;18.60;99.90;;;;;;5031320;28;20029;-68
2022/06/13 09:26:14;;;;;;;6.68;1.83;;;18.60;99.90;;;;;;5032077;28;20099;-67
2022/06/13 09:28:55;;;;;;;7.70;1.65;;;19.20;99.90;;;;;;5031951;28;20063;-68
2022/06/13 09:31:30;;;;;;;6.65;1.83;;;19.50;99.90;;;;;;5032544;28;20043;-68
2022/06/13 09:34:23;;;;;;;8.73;1.23;;;19.60;99.90;;;;;;5032053;28;20025;-69
2022/06/13 09:37:08;;;;;;;10.73;1.50;;;19.20;99.90;;;;;;5032533;28;20486;-69
2022/06/13 09:39:34;;;;;;;5.85;1.65;;;19.60;99.90;;;;;;5033054;28;20036;-69
2022/06/13 09:42:21;;;;;;;5.40;1.23;;;19.20;99.90;;;;;;5031333;28;20028;-70
2022/06/13 09:44:56;;;;;;;5.43;1.25;;;19.10;99.90;;;;;;5026207;28;20021;-71
2022/06/13 09:47:38;;;;;;;10.82;1.80;;;19.20;99.90;;;;;;5004381;28;20128;-68
2022/06/13 09:50:06;;;;;;;5.10;1.50;;;19.20;99.90;;;;;;5027417;28;20029;-68
2022/06/13 09:52:42;;;;;;;4.72;1.40;;;18.90;99.90;;;;;;5018955;28;20120;-68
2022/06/13 09:55:22;;;;;;;7.15;1.30;;;18.70;99.90;;;;;;5032546;28;20108;-71
2022/06/13 09:58:22;;;;;;;6.72;1.13;;;18.30;99.90;;;;;;5014695;28;20052;-68
2022/06/13 10:01:22;;;;;;;5.78;1.67;;;18.20;99.90;;;;;;5032614;28;20041;-70
2022/06/13 10:04:38;;;;;;;8.18;1.73;;;18.40;99.90;;;;;;5011002;28;20034;-68
2022/06/13 10:07:08;;;;;;;6.32;1.40;;;19.00;99.90;;;;;;4966346;28;20454;-69
2022/06/13 10:09:56;;;;;;;8.27;1.40;;;19.00;99.90;;;;;;5011859;28;20029;-69
2022/06/13 10:12:31;;;;;;;7.90;1.50;;;18.70;99.90;;;;;;5024828;28;20049;-70
2022/06/13 10:15:24;;;;;;;5.70;1.20;;;18.70;99.90;;;;;;5025990;28;20041;-71
2022/06/13 10:18:02;;;;;;;7.35;1.63;;;18.50;99.90;;;;;;5022778;28;20109;-70
2022/06/13 10:20:47;;;;;;;10.25;2.13;;;19.10;99.90;;;;;;5030969;28;20026;-69
2022/06/13 10:23:19;;;;;;;5.32;1.55;;;19.90;99.90;;;;;;5026660;28;20108;-69
2022/06/13 10:26:03;;;;;;;7.40;1.95;;;20.00;99.90;;;;;;5033892;28;20124;-68
2022/06/13 10:28:48;;;;;;;5.93;0.95;;;19.70;99.60;;;;;;5029568;28;20014;-69
2022/06/13 10:31:35;;;;;;;4.32;1.23;;;19.10;99.90;;;;;;5016534;28;20065;-68
2022/06/13 10:34:28;;;;;;;4.13;1.33;;;19.00;99.90;;;;;;5016341;28;20030;-68
2022/06/13 10:36:54;;;;;;;4.13;0.98;;;19.40;99.90;;;;;;4989892;28;20042;-69
2022/06/13 10:39:22;;;;;;;7.82;1.23;;;19.60;99.90;;;;;;5015122;28;20091;-69
2022/06/13 10:41:53;;;;;;;4.78;1.40;;;19.30;99.90;;;;;;5015684;28;20045;-69
2022/06/13 10:44:20;;;;;;;5.78;1.13;;;19.20;99.90;;;;;;5016266;28;20040;-68
2022/06/13 10:46:58;;;;;;;5.45;1.33;;;18.70;99.90;;;;;;5010730;28;20032;-69
2022/06/13 10:49:36;;;;;;;3.03;0.93;;;18.90;99.90;;;;;;5016093;28;20028;-70
2022/06/13 10:52:06;;;;;;;5.15;1.48;;;18.50;99.90;;;;;;5015905;28;20578;-69
2022/06/13 10:54:44;;;;;;;3.97;1.10;;;18.40;99.90;;;;;;5035473;28;20597;-69
2022/06/13 10:57:17;;;;;;;5.18;1.08;;;18.40;99.90;;;;;;5035569;28;20508;-70
2022/06/13 10:59:43;;;;;;;17.40;1.70;;;19.00;99.90;;;;;;5017899;28;20021;-68
2022/06/13 11:02:24;;;;;;;7.38;1.33;;;19.60;99.90;;;;;;5035866;28;20478;-69
2022/06/13 11:05:24;;;;;;;5.50;1.20;;;19.50;99.20;;;;;;5026408;28;20033;-68
2022/06/13 11:07:55;;;;;;;6.80;1.17;;;20.20;99.90;;;;;;5013535;28;20046;-70
2022/06/13 11:10:41;;;;;;;6.30;1.38;;;20.80;98.10;;;;;;5035191;28;20029;-69
2022/06/13 11:13:17;;;;;;;4.20;1.30;;;20.90;97.90;;;;;;5034992;28;20506;-70
2022/06/13 11:24:36;;;;;;;3.40;1.00;;;20.90;95.80;;;;;;5035029;28;20033;-69
2022/06/13 11:30:25;;;;;;;5.35;1.15;;;20.10;95.30;;;;;;5017348;28;20041;-69
2022/06/13 11:33:00;;;;;;;6.97;1.30;;;20.60;96.60;;;;;;5035281;28;20444;-68
2022/06/13 11:35:48;;;;;;;4.93;0.90;;;20.90;96.00;;;;;;5000875;28;20026;-69
2022/06/13 11:38:16;;;;;;;2.45;1.60;;;21.00;94.00;;;;;;5030877;28;20064;-68
2022/06/13 11:40:46;;;;;;;3.58;0.95;;;20.70;94.60;;;;;;5034877;28;20413;-69
2022/06/13 11:43:38;;;;;;;5.38;1.00;;;20.30;94.70;;;;;;5035079;28;20032;-69
2022/06/13 11:46:08;;;;;;;5.53;1.23;;;21.20;95.80;;;;;;5033292;28;20022;-68
2022/06/13 11:48:35;;;;;;;5.38;0.98;;;21.40;94.30;;;;;;5031476;28;20033;-69
2022/06/13 11:51:04;;;;;;;7.93;1.58;;;21.70;94.50;;;;;;5029837;28;20026;-69
2022/06/13 11:53:37;;;;;;;1.35;0.80;;;21.70;93.40;;;;;;5026217;28;20500;-70
2022/06/13 11:56:19;;;;;;;3.65;1.00;;;20.90;93.10;;;;;;5034480;28;20471;-68
2022/06/13 11:58:47;;;;;;;10.57;0.90;;;20.90;94.10;;;;;;5034575;28;20025;-69
2022/06/13 12:01:19;;;;;;;4.57;1.05;;;21.20;94.10;;;;;;5034582;28;20022;-68
2022/06/13 12:04:13;;;;;;;7.32;0.70;;;20.80;93.40;;;;;;5028171;28;20367;-69
2022/06/13 12:06:56;;;;;;;9.20;1.45;;;20.80;94.20;;;;;;5009984;28;20030;-68
2022/06/13 12:09:31;;;;;;;5.00;0.90;;;21.10;93.40;;;;;;5034139;28;20037;-69
2022/06/13 12:12:04;;;;;;;7.30;1.42;;;20.80;93.80;;;;;;5034154;28;20037;-68
2022/06/13 12:14:39;;;;;;;4.55;1.15;;;21.60;93.90;;;;;;5034070;28;20138;-69
2022/06/13 12:18:00;;;;;;;6.32;0.95;;;21.90;92.90;;;;;;5034348;28;20057;-69
2022/06/13 12:20:44;;;;;;;5.18;1.20;;;21.90;93.40;;;;;;4982860;28;20034;-69
2022/06/13 12:23:18;;;;;;;3.63;0.70;;;21.10;93.50;;;;;;5028880;28;20037;-69
2022/06/13 12:26:24;;;;;;;3.33;0.90;;;20.40;93.50;;;;;;5033510;28;20540;-69
2022/06/13 12:29:11;;;;;;;2.25;0.80;;;20.90;94.10;;;;;;5022277;28;20038;-69
2022/06/13 12:31:44;;;;;;;11.20;1.77;;;21.30;92.60;;;;;;5033682;28;20033;-70
2022/06/13 12:34:53;;;;;;;2.28;0.82;;;20.80;93.20;;;;;;5034051;28;20030;-68
2022/06/13 12:37:34;;;;;;;2.80;0.70;;;21.30;94.30;;;;;;5033443;28;20037;-70
2022/06/13 12:40:21;;;;;;;4.68;1.35;;;21.20;93.10;;;;;;5033553;28;20017;-69
2022/06/13 12:43:15;;;;;;;3.67;1.00;;;20.90;93.30;;;;;;5033401;28;20046;-69
2022/06/13 12:45:51;;;;;;;5.90;1.55;;;21.20;92.70;;;;;;5033913;28;20025;-69
2022/06/13 12:48:26;;;;;;;4.57;0.98;;;21.90;93.20;;;;;;5007506;28;20121;-68
2022/06/13 12:50:52;;;;;;;5.88;1.42;;;22.20;92.10;;;;;;5029912;28;20171;-69
2022/06/13 12:53:36;;;;;;;5.15;1.30;;;21.90;92.70;;;;;;5021935;28;20112;-68
2022/06/13 12:56:43;;;;;;;5.22;0.98;;;22.10;93.60;;;;;;5033444;28;20033;-69
2022/06/13 12:59:49;;;;;;;8.35;2.03;;;22.50;92.70;;;;;;5009979;28;20486;-68
2022/06/13 13:02:36;;;;;;;4.88;1.10;;;22.60;92.90;;;;;;5033455;28;20445;-69
2022/06/13 13:05:14;;;;;;;6.72;1.50;;;22.20;91.80;;;;;;5009843;28;20022;-70
2022/06/13 13:07:58;;;;;;;7.70;1.52;;;22.60;91.80;;;;;;5022603;28;20125;-70
2022/06/13 13:11:06;;;;;;;5.10;1.45;;;22.10;91.90;;;;;;5033729;28;20021;-69
2022/06/13 13:13:56;;;;;;;9.20;1.38;;;22.40;91.50;;;;;;5013868;28;20148;-71
2022/06/13 13:16:38;;;;;;;6.20;1.73;;;21.60;91.70;;;;;;5033436;28;20050;-69
2022/06/13 13:19:27;;;;;;;6.13;1.07;;;21.70;93.20;;;;;;5033053;28;20037;-70
2022/06/13 13:21:59;;;;;;;6.38;1.33;;;22.00;91.60;;;;;;5032776;28;20052;-70
2022/06/13 13:24:43;;;;;;;8.43;1.60;;;22.20;91.80;;;;;;5015260;28;20116;-68
2022/06/13 13:27:17;;;;;;;7.50;1.52;;;22.70;92.10;;;;;;5010315;28;20030;-69
2022/06/13 13:29:55;;;;;;;6.82;1.33;;;23.60;90.50;;;;;;5032968;28;20021;-69
2022/06/13 13:32:24;;;;;;;6.32;1.70;;;22.80;90.10;;;;;;5033254;28;20056;-69
2022/06/13 13:35:14;;;;;;;9.57;1.92;;;22.20;91.30;;;;;;5015028;28;20036;-69
2022/06/13 13:38:21;;;;;;;9.45;1.80;;;22.30;91.30;;;;;;5032718;28;20106;-68
2022/06/13 13:40:57;;;;;;;5.10;1.50;;;23.00;90.90;;;;;;5032716;28;20068;-70
2022/06/13 13:43:41;;;;;;;6.57;1.45;;;23.20;91.00;;;;;;5033450;28;20425;-68
2022/06/13 13:46:19;;;;;;;10.50;2.00;;;22.60;91.00;;;;;;5030701;28;20033;-68